createdAt,value
2018-07-14T00:00:49.700Z,11.03
2018-07-14T00:03:19.819Z,12.60
2018-07-14T00:05:49.940Z,14.10
2018-07-14T00:08:20.052Z,15.17
2018-07-14T00:10:50.279Z,9.57
2018-07-14T00:13:20.418Z,9.73
2018-07-14T00:15:50.544Z,9.97
2018-07-14T00:18:20.701Z,8.83
2018-07-14T00:20:50.896Z,10.90
2018-07-14T00:23:21.021Z,9.80
2018-07-14T00:25:56.463Z,8.77
2018-07-14T00:28:26.545Z,9.60
2018-07-14T00:30:57.065Z,9.00
2018-07-14T00:33:27.355Z,8.27
2018-07-14T00:35:57.620Z,8.80
2018-07-14T00:38:28.278Z,9.03
2018-07-14T00:40:58.415Z,9.10
2018-07-14T00:43:28.520Z,10.10
2018-07-14T00:45:58.628Z,7.77
2018-07-14T00:48:28.796Z,7.70
2018-07-14T00:50:58.920Z,8.60
2018-07-14T00:53:29.008Z,9.90
2018-07-14T00:55:59.104Z,8.27
2018-07-14T00:58:29.235Z,8.43
2018-07-14T01:00:59.392Z,8.77
2018-07-14T01:03:29.615Z,8.77
2018-07-14T01:05:59.457Z,8.33
2018-07-14T01:08:29.478Z,8.83
2018-07-14T01:10:59.689Z,8.97
2018-07-14T01:13:29.840Z,9.53
2018-07-14T01:15:59.924Z,8.60
2018-07-14T01:18:30.119Z,8.83
2018-07-14T01:21:00.229Z,9.43
2018-07-14T01:23:30.031Z,24.20
2018-07-14T01:26:00.062Z,26.93
2018-07-14T01:28:30.204Z,10.03
2018-07-14T01:31:00.386Z,16.60
2018-07-14T01:33:30.512Z,14.87
2018-07-14T01:36:00.706Z,9.10
2018-07-14T01:38:30.820Z,11.20
2018-07-14T01:41:00.898Z,9.20
2018-07-14T01:43:31.047Z,10.73
2018-07-14T01:46:01.145Z,9.93
2018-07-14T01:48:31.260Z,8.60
2018-07-14T01:51:01.355Z,9.87
2018-07-14T01:53:31.440Z,9.20
2018-07-14T01:56:20.914Z,9.53
2018-07-14T01:58:59.329Z,9.67
2018-07-14T02:01:31.723Z,9.97
2018-07-14T02:04:01.811Z,8.40
2018-07-14T02:06:31.928Z,8.07
2018-07-14T02:09:02.016Z,9.07
2018-07-14T02:11:32.185Z,8.33
2018-07-14T02:14:02.292Z,9.53
2018-07-14T02:16:32.471Z,8.20
2018-07-14T02:19:02.564Z,8.13
2018-07-14T02:21:32.676Z,8.30
2018-07-14T02:24:03.797Z,7.53
2018-07-14T02:26:33.955Z,9.33
2018-07-14T02:29:04.129Z,9.73
2018-07-14T02:31:34.300Z,9.33
2018-07-14T02:34:04.517Z,11.20
2018-07-14T02:36:34.621Z,9.50
2018-07-14T02:41:48.160Z,9.30
2018-07-14T02:44:18.252Z,9.13
2018-07-14T02:46:48.445Z,9.10
2018-07-14T02:49:18.552Z,8.97
2018-07-14T02:51:48.692Z,8.90
2018-07-14T02:54:18.825Z,8.40
2018-07-14T02:56:48.976Z,7.80
2018-07-14T02:59:19.095Z,8.30
2018-07-14T03:01:49.185Z,8.37
2018-07-14T03:04:19.312Z,7.97
2018-07-14T03:06:49.401Z,8.53
2018-07-14T03:09:19.493Z,8.40
2018-07-14T03:11:49.584Z,8.33
2018-07-14T03:14:19.677Z,7.70
2018-07-14T03:16:49.776Z,7.90
2018-07-14T03:19:19.903Z,8.73
2018-07-14T03:21:49.997Z,7.63
2018-07-14T03:24:20.115Z,8.47
2018-07-14T03:26:50.189Z,8.00
2018-07-14T03:29:20.396Z,8.40
2018-07-14T03:31:50.486Z,8.30
2018-07-14T03:34:20.633Z,8.20
2018-07-14T03:36:50.727Z,8.63
2018-07-14T03:39:20.864Z,7.67
2018-07-14T03:41:51.034Z,7.60
2018-07-14T03:44:21.112Z,7.83
2018-07-14T03:46:51.225Z,8.30
2018-07-14T03:49:21.316Z,7.10
2018-07-14T03:51:51.571Z,8.53
2018-07-14T03:54:21.725Z,7.23
2018-07-14T03:56:51.839Z,7.60
2018-07-14T03:59:21.893Z,8.00
2018-07-14T04:01:52.033Z,7.93
2018-07-14T04:04:22.142Z,7.07
2018-07-14T04:06:52.301Z,7.00
2018-07-14T04:09:22.404Z,7.20
2018-07-14T04:11:52.743Z,6.67
2018-07-14T04:14:22.855Z,7.17
2018-07-14T04:16:53.225Z,6.00
2018-07-14T04:19:23.031Z,7.77
2018-07-14T04:21:53.061Z,5.67
2018-07-14T04:24:23.144Z,5.73
2018-07-14T04:26:53.361Z,5.53
2018-07-14T04:29:23.596Z,5.80
2018-07-14T04:31:53.874Z,5.23
2018-07-14T04:34:23.928Z,6.03
2018-07-14T04:36:54.051Z,5.47
2018-07-14T04:39:24.268Z,6.13
2018-07-14T04:41:54.627Z,4.57
2018-07-14T04:44:24.945Z,4.40
2018-07-14T04:46:55.553Z,5.13
2018-07-14T04:49:25.674Z,4.63
2018-07-14T04:51:55.778Z,5.03
2018-07-14T04:54:26.054Z,4.80
2018-07-14T04:56:56.128Z,5.97
2018-07-14T04:59:26.218Z,5.30
2018-07-14T05:01:56.292Z,4.17
2018-07-14T05:04:26.371Z,4.33
2018-07-14T05:06:56.460Z,5.37
2018-07-14T05:09:26.535Z,4.40
2018-07-14T05:11:56.620Z,6.87
2018-07-14T05:14:26.688Z,4.80
2018-07-14T05:16:56.777Z,7.40
2018-07-14T05:19:26.956Z,4.70
2018-07-14T05:21:57.052Z,5.23
2018-07-14T05:24:27.176Z,5.50
2018-07-14T05:26:57.292Z,5.40
2018-07-14T05:29:27.401Z,6.57
2018-07-14T05:31:57.617Z,5.03
2018-07-14T05:34:28.089Z,6.63
2018-07-14T05:36:58.264Z,5.03
2018-07-14T05:39:28.372Z,5.17
2018-07-14T05:41:58.776Z,4.40
2018-07-14T05:44:29.019Z,5.17
2018-07-14T05:46:59.169Z,4.87
2018-07-14T05:49:29.648Z,4.73
2018-07-14T05:51:59.861Z,4.83
2018-07-14T05:54:29.932Z,5.83
2018-07-14T05:57:00.276Z,4.23
2018-07-14T05:59:30.397Z,4.50
2018-07-14T06:02:00.736Z,6.87
2018-07-14T06:04:30.924Z,6.83
2018-07-14T06:07:01.061Z,5.27
2018-07-14T06:09:31.220Z,4.20
2018-07-14T06:12:01.400Z,4.40
2018-07-14T06:14:31.557Z,3.80
2018-07-14T06:17:01.652Z,4.37
2018-07-14T06:19:31.823Z,4.13
2018-07-14T06:22:02.006Z,4.40
2018-07-14T06:24:32.199Z,3.60
2018-07-14T06:27:02.373Z,3.73
2018-07-14T06:29:32.495Z,3.73
2018-07-14T06:32:02.661Z,3.73
2018-07-14T06:34:32.716Z,3.50
2018-07-14T06:37:02.809Z,4.37
2018-07-14T06:39:32.935Z,3.47
2018-07-14T06:42:03.024Z,4.70
2018-07-14T06:44:33.137Z,3.77
2018-07-14T06:47:03.272Z,3.73
2018-07-14T06:49:33.349Z,4.90
2018-07-14T06:52:03.448Z,5.10
2018-07-14T06:54:33.544Z,4.07
2018-07-14T06:57:03.638Z,4.43
2018-07-14T06:59:33.702Z,4.67
2018-07-14T07:02:03.584Z,3.83
2018-07-14T07:04:33.612Z,3.80
2018-07-14T07:07:03.730Z,4.57
2018-07-14T07:09:33.824Z,5.17
2018-07-14T07:12:03.909Z,3.90
2018-07-14T07:14:34.009Z,3.70
2018-07-14T07:17:04.199Z,4.20
2018-07-14T07:19:34.284Z,5.20
2018-07-14T07:22:04.424Z,4.37
2018-07-14T07:24:34.524Z,4.77
2018-07-14T07:27:04.621Z,4.07
2018-07-14T07:29:34.805Z,3.90
2018-07-14T07:32:04.948Z,4.17
2018-07-14T07:34:35.118Z,4.83
2018-07-14T07:37:05.599Z,4.03
2018-07-14T07:39:35.697Z,4.17
2018-07-14T07:42:05.815Z,4.13
2018-07-14T07:44:35.875Z,4.03
2018-07-14T07:47:06.041Z,4.43
2018-07-14T07:49:36.100Z,4.20
2018-07-14T07:52:06.308Z,3.50
2018-07-14T07:54:36.436Z,3.70
2018-07-14T07:57:06.805Z,4.13
2018-07-14T07:59:36.877Z,3.80
2018-07-14T08:02:07.246Z,4.00
2018-07-14T08:04:37.293Z,4.17
2018-07-14T08:07:08.152Z,3.70
2018-07-14T08:09:38.268Z,3.90
2018-07-14T08:12:08.404Z,4.12
2018-07-14T08:14:38.488Z,3.60
2018-07-14T08:17:08.602Z,3.85
2018-07-14T08:19:38.744Z,4.00
2018-07-14T08:22:08.948Z,5.10
2018-07-14T08:24:39.020Z,3.65
2018-07-14T08:27:09.121Z,3.85
2018-07-14T08:29:39.369Z,3.42
2018-07-14T08:32:09.160Z,3.50
2018-07-14T08:34:38.846Z,3.55
2018-07-14T08:37:09.505Z,3.47
2018-07-14T08:39:39.591Z,3.85
2018-07-14T08:42:09.760Z,3.47
2018-07-14T08:44:39.887Z,3.40
2018-07-14T08:47:09.710Z,3.20
2018-07-14T08:49:39.980Z,3.70
2018-07-14T08:52:10.056Z,3.37
2018-07-14T08:54:40.287Z,3.37
2018-07-14T08:57:10.353Z,3.55
2018-07-14T08:59:40.484Z,3.60
2018-07-14T09:02:10.556Z,3.73
2018-07-14T09:04:40.623Z,4.25
2018-07-14T09:07:10.696Z,4.40
2018-07-14T09:09:40.776Z,4.00
2018-07-14T09:12:11.031Z,3.67
2018-07-14T09:14:41.116Z,3.95
2018-07-14T09:17:10.900Z,3.60
2018-07-14T09:19:40.945Z,4.10
2018-07-14T09:22:11.038Z,3.70
2018-07-14T09:24:41.132Z,3.80
2018-07-14T09:27:11.197Z,4.67
2018-07-14T09:29:41.320Z,3.30
2018-07-14T09:32:13.964Z,3.30
2018-07-14T09:34:47.442Z,3.25
2018-07-14T09:37:17.595Z,3.40
2018-07-14T09:39:50.859Z,3.67
2018-07-14T09:42:21.768Z,6.23
2018-07-14T09:45:24.263Z,3.87
2018-07-14T09:51:25.070Z,3.93
2018-07-14T09:53:58.768Z,3.60
2018-07-14T09:56:33.248Z,3.80
2018-07-14T09:59:10.577Z,5.23
2018-07-14T10:01:48.189Z,4.67
2018-07-14T10:04:34.392Z,4.00
2018-07-14T10:07:16.602Z,3.73
2018-07-14T10:09:56.553Z,3.93
2018-07-14T10:12:35.280Z,4.13
2018-07-14T10:15:12.673Z,3.83
2018-07-14T10:17:55.768Z,4.13
2018-07-14T10:20:31.420Z,3.90
2018-07-14T10:23:07.596Z,3.90
2018-07-14T10:25:45.418Z,4.47
2018-07-14T10:28:32.601Z,4.20
2018-07-14T10:31:12.886Z,4.07
2018-07-14T10:33:51.607Z,4.53
2018-07-14T10:36:30.236Z,4.70
2018-07-14T10:39:11.007Z,4.10
2018-07-14T10:41:48.326Z,4.13
2018-07-14T10:44:23.095Z,3.70
2018-07-14T10:47:07.106Z,4.50
2018-07-14T10:49:48.677Z,4.03
2018-07-14T10:52:24.945Z,5.00
2018-07-14T10:55:00.852Z,3.83
2018-07-14T10:57:34.555Z,4.83
2018-07-14T11:00:10.379Z,3.77
2018-07-14T11:02:42.411Z,3.60
2018-07-14T11:05:18.350Z,3.50
2018-07-14T11:07:52.115Z,3.73
2018-07-14T11:10:25.476Z,5.07
2018-07-14T11:13:00.736Z,4.27
2018-07-14T11:15:35.225Z,3.60
2018-07-14T11:18:05.641Z,3.90
2018-07-14T11:20:36.512Z,3.90
2018-07-14T11:23:07.148Z,4.07
2018-07-14T11:25:37.336Z,3.43
2018-07-14T11:28:07.447Z,3.83
2018-07-14T11:30:37.549Z,4.00
2018-07-14T11:33:07.649Z,5.03
2018-07-14T11:35:37.904Z,3.70
2018-07-14T11:38:08.071Z,3.50
2018-07-14T11:40:38.151Z,3.70
2018-07-14T11:43:08.256Z,3.77
2018-07-14T11:45:38.363Z,4.73
2018-07-14T11:48:08.476Z,3.63
2018-07-14T11:50:38.560Z,4.63
2018-07-14T11:53:08.716Z,3.90
2018-07-14T11:55:38.553Z,7.07
2018-07-14T11:58:08.572Z,8.03
2018-07-14T12:00:39.578Z,4.50
2018-07-14T12:03:09.647Z,3.47
2018-07-14T12:05:39.720Z,3.60
2018-07-14T12:08:09.864Z,3.45
2018-07-14T12:10:39.968Z,3.67
2018-07-14T12:13:10.045Z,3.97
2018-07-14T12:15:40.188Z,3.87
2018-07-14T12:18:10.285Z,3.53
2018-07-14T12:20:40.352Z,3.73
2018-07-14T12:23:10.598Z,3.90
2018-07-14T12:25:40.719Z,3.40
2018-07-14T12:28:10.795Z,3.90
2018-07-14T12:30:40.948Z,3.50
2018-07-14T12:33:10.985Z,3.60
2018-07-14T12:35:41.084Z,3.60
2018-07-14T12:38:11.244Z,3.80
2018-07-14T12:40:41.337Z,3.90
2018-07-14T12:43:11.452Z,3.63
2018-07-14T12:45:41.568Z,3.57
2018-07-14T12:48:11.820Z,3.90
2018-07-14T12:50:41.909Z,3.80
2018-07-14T12:53:12.072Z,3.43
2018-07-14T12:55:44.986Z,3.47
2018-07-14T12:58:15.225Z,4.10
2018-07-14T13:00:46.056Z,4.50
2018-07-14T13:03:16.224Z,3.83
2018-07-14T13:05:46.393Z,3.80
2018-07-14T13:08:16.533Z,3.90
2018-07-14T13:10:46.716Z,3.90
2018-07-14T13:13:16.800Z,4.20
2018-07-14T13:15:46.916Z,3.93
2018-07-14T13:18:17.006Z,3.90
2018-07-14T13:20:47.143Z,4.17
2018-07-14T13:23:17.516Z,4.40
2018-07-14T13:25:47.903Z,4.17
2018-07-14T13:28:18.308Z,4.00
2018-07-14T13:30:48.689Z,3.93
2018-07-14T13:33:18.783Z,3.57
2018-07-14T13:35:48.914Z,4.67
2018-07-14T13:38:18.992Z,3.83
2018-07-14T13:40:49.088Z,4.03
2018-07-14T13:43:19.228Z,4.10
2018-07-14T13:45:49.639Z,4.00
2018-07-14T13:48:19.924Z,4.27
2018-07-14T13:50:50.005Z,3.97
2018-07-14T13:53:20.194Z,4.43
2018-07-14T13:55:50.339Z,3.83
2018-07-14T13:58:20.513Z,4.33
2018-07-14T14:00:50.787Z,5.00
2018-07-14T14:03:20.883Z,7.20
2018-07-14T14:05:53.417Z,4.30
2018-07-14T14:08:23.688Z,4.20
2018-07-14T14:10:53.800Z,5.27
2018-07-14T14:13:23.880Z,3.97
2018-07-14T14:15:54.016Z,3.93
2018-07-14T14:18:24.120Z,4.03
2018-07-14T14:20:54.862Z,4.20
2018-07-14T14:23:24.947Z,4.90
2018-07-14T14:25:55.424Z,4.23
2018-07-14T14:28:25.548Z,4.10
2018-07-14T14:30:55.644Z,4.70
2018-07-14T14:33:25.761Z,4.57
2018-07-14T14:35:55.907Z,4.10
2018-07-14T14:38:25.984Z,4.10
2018-07-14T14:40:56.072Z,4.00
2018-07-14T14:43:26.260Z,4.20
2018-07-14T14:45:56.620Z,4.30
2018-07-14T14:48:27.046Z,4.60
2018-07-14T14:50:57.524Z,5.80
2018-07-14T14:53:27.768Z,9.90
2018-07-14T14:55:57.925Z,10.30
2018-07-14T14:58:28.124Z,14.30
2018-07-14T15:00:58.290Z,4.10
2018-07-14T15:03:28.347Z,4.83
2018-07-14T15:05:58.539Z,4.23
2018-07-14T15:08:28.676Z,4.10
2018-07-14T15:10:58.773Z,6.47
2018-07-14T15:13:28.962Z,4.60
2018-07-14T15:15:59.056Z,7.47
2018-07-14T15:18:29.204Z,6.60
2018-07-14T15:20:59.452Z,4.60
2018-07-14T15:23:29.741Z,4.30
2018-07-14T15:26:00.369Z,4.23
2018-07-14T15:28:30.560Z,4.40
2018-07-14T15:31:00.699Z,4.40
2018-07-14T15:33:32.978Z,5.20
2018-07-14T15:36:04.037Z,5.40
2018-07-14T15:38:34.313Z,4.90
2018-07-14T15:41:04.665Z,4.70
2018-07-14T15:43:35.152Z,5.27
2018-07-14T15:46:05.576Z,6.63
2018-07-14T15:48:35.761Z,6.67
2018-07-14T15:51:06.261Z,5.33
2018-07-14T15:53:36.336Z,6.57
2018-07-14T15:56:07.440Z,6.73
2018-07-14T15:58:37.655Z,4.73
2018-07-14T16:01:07.903Z,5.87
2018-07-14T16:03:38.677Z,4.90
2018-07-14T16:06:08.739Z,5.70
2018-07-14T16:08:38.897Z,4.90
2018-07-14T16:11:09.410Z,5.23
2018-07-14T16:13:39.529Z,6.27
2018-07-14T16:16:09.861Z,6.97
2018-07-14T16:18:39.957Z,5.00
2018-07-14T16:21:10.020Z,5.40
2018-07-14T16:23:40.228Z,6.20
2018-07-14T16:26:10.336Z,5.90
2018-07-14T16:28:40.543Z,7.50
2018-07-14T16:31:10.780Z,5.07
2018-07-14T16:33:40.910Z,23.83
2018-07-14T16:36:11.208Z,13.73
2018-07-14T16:38:41.488Z,11.83
2018-07-14T16:41:11.580Z,7.70
2018-07-14T16:43:41.837Z,6.77
2018-07-14T16:46:11.929Z,9.20
2018-07-14T16:48:42.142Z,9.40
2018-07-14T16:51:12.240Z,7.17
2018-07-14T16:53:42.368Z,6.80
2018-07-14T16:56:12.556Z,4.80
2018-07-14T16:58:42.749Z,5.70
2018-07-14T17:01:13.364Z,5.27
2018-07-14T17:03:43.432Z,5.17
2018-07-14T17:06:13.549Z,5.33
2018-07-14T17:08:43.656Z,7.03
2018-07-14T17:11:13.779Z,4.80
2018-07-14T17:13:43.881Z,5.37
2018-07-14T17:16:13.997Z,5.83
2018-07-14T17:18:44.909Z,5.27
2018-07-14T17:21:15.001Z,5.10
2018-07-14T17:23:45.169Z,4.97
2018-07-14T17:26:15.336Z,6.70
2018-07-14T17:28:45.416Z,5.40
2018-07-14T17:31:15.524Z,8.50
2018-07-14T17:33:45.620Z,7.00
2018-07-14T17:36:15.760Z,7.27
2018-07-14T17:38:45.869Z,5.77
2018-07-14T17:41:16.316Z,6.17
2018-07-14T17:43:46.554Z,4.40
2018-07-14T17:46:16.661Z,4.80
2018-07-14T17:48:46.920Z,5.00
2018-07-14T17:51:17.136Z,4.13
2018-07-14T17:53:47.196Z,6.70
2018-07-14T17:56:17.289Z,8.80
2018-07-14T17:58:47.401Z,7.23
2018-07-14T18:01:17.601Z,7.20
2018-07-14T18:03:47.765Z,4.37
2018-07-14T18:06:17.916Z,5.27
2018-07-14T18:08:48.122Z,4.60
2018-07-14T18:11:18.194Z,9.47
2018-07-14T18:13:48.463Z,7.80
2018-07-14T18:16:18.548Z,5.83
2018-07-14T18:18:48.739Z,5.67
2018-07-14T18:21:18.951Z,6.27
2018-07-14T18:23:49.048Z,5.77
2018-07-14T18:26:19.177Z,5.77
2018-07-14T18:28:48.910Z,6.30
2018-07-14T18:31:19.017Z,6.70
2018-07-14T18:33:49.145Z,6.63
2018-07-14T18:36:19.286Z,7.30
2018-07-14T18:38:49.352Z,7.60
2018-07-14T18:41:19.483Z,9.63
2018-07-14T18:43:49.628Z,8.20
2018-07-14T18:46:19.744Z,11.70
2018-07-14T18:48:49.845Z,7.50
2018-07-14T18:51:20.141Z,7.07
2018-07-14T18:53:50.304Z,8.67
2018-07-14T18:56:20.577Z,9.67
2018-07-14T18:58:50.728Z,10.23
2018-07-14T19:01:21.474Z,12.47
2018-07-14T19:03:51.618Z,8.90
2018-07-14T19:06:21.724Z,11.27
2018-07-14T19:08:51.927Z,11.10
2018-07-14T19:11:22.084Z,10.27
2018-07-14T19:13:52.172Z,11.43
2018-07-14T19:16:22.272Z,11.30
2018-07-14T19:18:52.185Z,10.80
2018-07-14T19:21:22.268Z,12.07
2018-07-14T19:23:52.936Z,10.77
2018-07-14T19:26:23.272Z,10.03
2018-07-14T19:28:53.368Z,11.20
2018-07-14T19:31:23.503Z,10.10
2018-07-14T19:33:53.620Z,11.47
2018-07-14T19:36:24.236Z,12.33
2018-07-14T19:38:54.376Z,14.93
2018-07-14T19:41:24.680Z,14.37
2018-07-14T19:43:54.845Z,12.33
2018-07-14T19:46:24.944Z,12.37
2018-07-14T19:48:55.237Z,17.03
2018-07-14T19:51:25.363Z,116.20
2018-07-14T19:53:55.488Z,30.97
2018-07-14T19:56:25.607Z,78.80
2018-07-14T19:58:55.708Z,33.70
2018-07-14T20:01:25.861Z,16.03
2018-07-14T20:03:55.973Z,51.80
2018-07-14T20:06:26.127Z,166.53
2018-07-14T20:08:56.265Z,80.13
2018-07-14T20:11:26.557Z,30.67
2018-07-14T20:13:56.662Z,15.50
2018-07-14T20:16:26.887Z,42.37
2018-07-14T20:18:57.346Z,29.80
2018-07-14T20:21:27.508Z,34.20
2018-07-14T20:23:57.716Z,26.87
2018-07-14T20:26:27.841Z,15.63
2018-07-14T20:28:58.016Z,43.27
2018-07-14T20:31:27.838Z,35.77
2018-07-14T20:33:58.148Z,46.03
2018-07-14T20:36:28.362Z,29.40
2018-07-14T20:38:58.487Z,17.83
2018-07-14T20:41:28.632Z,12.63
2018-07-14T20:43:58.751Z,10.80
2018-07-14T20:46:28.881Z,31.30
2018-07-14T20:48:58.980Z,28.40
2018-07-14T20:51:29.108Z,19.40
2018-07-14T20:53:59.201Z,25.93
2018-07-14T20:56:29.337Z,69.13
2018-07-14T20:58:59.496Z,59.57
2018-07-14T21:01:29.612Z,18.20
2018-07-14T21:03:59.752Z,27.27
2018-07-14T21:06:29.928Z,23.20
2018-07-14T21:09:00.349Z,24.23
2018-07-14T21:11:30.662Z,71.03
2018-07-14T21:14:00.977Z,66.40
2018-07-14T21:16:30.883Z,28.23
2018-07-14T21:19:00.968Z,15.57
2018-07-14T21:21:31.079Z,21.63
2018-07-14T21:24:01.675Z,24.23
2018-07-14T21:26:32.214Z,20.43
2018-07-14T21:29:02.857Z,17.17
2018-07-14T21:31:33.224Z,20.53
2018-07-14T21:34:03.664Z,20.17
2018-07-14T21:36:34.053Z,18.57
2018-07-14T21:39:05.373Z,15.80
2018-07-14T21:41:37.393Z,15.90
2018-07-14T21:44:08.193Z,16.83
2018-07-14T21:46:38.437Z,62.40
2018-07-14T21:49:08.632Z,74.13
2018-07-14T21:51:38.755Z,33.33
2018-07-14T21:54:09.277Z,36.40
2018-07-14T21:56:39.681Z,25.50
2018-07-14T21:59:09.996Z,24.03
2018-07-14T22:01:45.416Z,22.70
2018-07-14T22:04:15.760Z,24.40
2018-07-14T22:06:46.140Z,25.80
2018-07-14T22:17:42.668Z,21.17
2018-07-14T22:20:12.827Z,17.90
2018-07-14T22:24:22.201Z,16.00
2018-07-14T22:31:35.141Z,15.27
2018-07-14T22:37:29.995Z,16.97
2018-07-14T22:40:00.118Z,16.50
2018-07-14T22:42:30.259Z,15.30
2018-07-14T22:48:08.058Z,13.47
2018-07-14T22:50:38.221Z,15.33
2018-07-14T22:53:08.382Z,16.40
2018-07-14T22:55:40.660Z,13.80
2018-07-14T23:01:18.863Z,15.23
2018-07-14T23:03:49.595Z,18.57
2018-07-14T23:06:20.442Z,18.77
2018-07-14T23:09:36.432Z,15.93
2018-07-14T23:17:57.965Z,16.97
2018-07-14T23:20:32.537Z,17.27
2018-07-14T23:23:28.586Z,17.97
2018-07-14T23:27:34.202Z,17.90
2018-07-14T23:30:04.881Z,17.07
2018-07-14T23:32:34.992Z,16.27
2018-07-14T23:35:05.124Z,15.63
2018-07-14T23:37:35.421Z,15.37
2018-07-14T23:40:07.278Z,15.13
2018-07-14T23:42:37.412Z,15.97
2018-07-14T23:45:31.130Z,14.20
2018-07-14T23:48:37.986Z,13.00
2018-07-14T23:55:16.358Z,13.00
2018-07-14T23:58:00.610Z,13.17
